createdAt,value
2022-10-21T00:02:12.777Z,91.43
2022-10-21T00:04:39.832Z,91.92
2022-10-21T00:07:07.030Z,91.90
2022-10-21T00:09:33.862Z,92.01
2022-10-21T00:12:00.945Z,91.93
2022-10-21T00:14:27.841Z,91.85
2022-10-21T00:16:54.938Z,91.99
2022-10-21T00:19:21.810Z,92.08
2022-10-21T00:21:48.930Z,92.06
2022-10-21T00:24:15.852Z,92.05
2022-10-21T00:26:42.935Z,91.92
2022-10-21T00:29:11.240Z,91.79
2022-10-21T00:31:38.611Z,91.94
2022-10-21T00:34:05.561Z,92.24
2022-10-21T00:36:32.673Z,91.78
2022-10-21T00:38:59.711Z,91.68
2022-10-21T00:41:26.774Z,92.32
2022-10-21T00:43:53.579Z,92.91
2022-10-21T00:46:26.403Z,92.64
2022-10-21T00:48:58.970Z,93.35
2022-10-21T00:51:25.910Z,93.69
2022-10-21T00:53:53.713Z,93.58
2022-10-21T00:56:25.657Z,93.25
2022-10-21T00:58:55.295Z,93.47
2022-10-21T01:01:22.306Z,93.02
2022-10-21T01:03:50.876Z,93.31
2022-10-21T01:06:21.957Z,93.29
2022-10-21T01:08:50.019Z,93.45
2022-10-21T01:11:19.613Z,93.90
2022-10-21T01:13:53.897Z,93.73
2022-10-21T01:16:25.551Z,93.67
2022-10-21T01:19:00.748Z,94.04
2022-10-21T01:21:41.861Z,93.65
2022-10-21T01:24:30.597Z,93.43
2022-10-21T01:27:20.613Z,93.30
2022-10-21T01:30:07.027Z,93.37
2022-10-21T01:32:36.982Z,93.49
2022-10-21T01:35:12.694Z,93.60
2022-10-21T01:38:29.043Z,93.57
2022-10-21T01:41:08.503Z,93.22
2022-10-21T01:44:06.306Z,93.40
2022-10-21T01:46:49.049Z,93.02
2022-10-21T01:49:28.879Z,92.83
2022-10-21T01:51:56.027Z,92.73
2022-10-21T01:54:35.545Z,92.58
2022-10-21T01:57:04.690Z,92.41
2022-10-21T01:59:33.009Z,92.31
2022-10-21T02:02:02.958Z,92.24
2022-10-21T02:04:33.492Z,92.14
2022-10-21T02:07:00.851Z,92.31
2022-10-21T02:09:27.959Z,92.25
2022-10-21T02:11:59.661Z,92.29
2022-10-21T02:14:35.413Z,92.33
2022-10-21T02:17:02.853Z,92.43
2022-10-21T02:22:05.385Z,92.67
2022-10-21T02:25:07.917Z,92.99
2022-10-21T02:27:35.267Z,93.08
2022-10-21T02:30:02.581Z,92.93
2022-10-21T02:32:40.904Z,93.41
2022-10-21T02:35:34.032Z,94.04
2022-10-21T02:38:10.396Z,93.60
2022-10-21T02:40:45.905Z,93.73
2022-10-21T02:43:21.067Z,93.83
2022-10-21T02:45:48.861Z,93.75
2022-10-21T02:48:16.187Z,93.91
2022-10-21T02:50:43.723Z,93.81
2022-10-21T02:53:12.281Z,94.30
2022-10-21T02:55:39.094Z,93.89
2022-10-21T02:58:06.286Z,94.00
2022-10-21T03:00:33.253Z,94.05
2022-10-21T03:03:00.889Z,93.82
2022-10-21T03:05:27.918Z,94.02
2022-10-21T03:07:55.149Z,94.03
2022-10-21T03:10:21.991Z,94.19
2022-10-21T03:12:49.917Z,93.93
2022-10-21T03:15:17.107Z,93.66
2022-10-21T03:17:44.325Z,93.70
2022-10-21T03:20:11.353Z,93.89
2022-10-21T03:22:38.564Z,93.95
2022-10-21T03:25:06.432Z,93.92
2022-10-21T03:27:33.524Z,93.68
2022-10-21T03:30:00.402Z,93.74
2022-10-21T03:32:27.787Z,93.72
2022-10-21T03:34:54.949Z,93.62
2022-10-21T03:37:22.118Z,93.89
2022-10-21T03:39:49.006Z,93.36
2022-10-21T03:42:16.152Z,93.37
2022-10-21T03:44:43.056Z,92.89
2022-10-21T03:47:10.138Z,92.75
2022-10-21T03:49:37.011Z,92.47
2022-10-21T03:52:04.140Z,92.66
2022-10-21T03:54:31.044Z,92.77
2022-10-21T03:56:58.517Z,93.03
2022-10-21T03:59:25.463Z,92.80
2022-10-21T04:01:52.601Z,93.21
2022-10-21T04:04:19.583Z,93.04
2022-10-21T04:06:46.713Z,92.92
2022-10-21T04:09:13.650Z,93.07
2022-10-21T04:11:40.849Z,93.21
2022-10-21T04:14:11.527Z,92.52
2022-10-21T04:16:41.676Z,92.54
2022-10-21T04:19:08.955Z,92.31
2022-10-21T04:21:36.024Z,92.40
2022-10-21T04:24:03.293Z,92.09
2022-10-21T04:26:30.329Z,91.78
2022-10-21T04:28:57.262Z,91.66
2022-10-21T04:31:27.410Z,91.84
2022-10-21T04:33:56.626Z,91.65
2022-10-21T04:36:23.693Z,91.10
2022-10-21T04:38:50.550Z,90.82
2022-10-21T04:41:17.647Z,90.98
2022-10-21T04:43:44.492Z,90.88
2022-10-21T04:46:14.293Z,90.85
2022-10-21T04:48:41.231Z,90.97
2022-10-21T04:51:08.866Z,90.75
2022-10-21T04:53:35.788Z,91.01
2022-10-21T04:56:03.160Z,90.73
2022-10-21T04:58:30.000Z,90.64
2022-10-21T05:00:57.369Z,90.03
2022-10-21T05:03:25.032Z,90.08
2022-10-21T05:05:52.868Z,89.71
2022-10-21T05:08:21.189Z,89.54
2022-10-21T05:10:48.551Z,89.56
2022-10-21T05:13:16.403Z,89.38
2022-10-21T05:15:43.754Z,89.10
2022-10-21T05:18:10.996Z,89.11
2022-10-21T05:20:38.074Z,88.79
2022-10-21T05:23:05.157Z,89.12
2022-10-21T05:25:34.375Z,88.61
2022-10-21T05:28:01.558Z,89.02
2022-10-21T05:30:28.839Z,88.31
2022-10-21T05:32:55.892Z,88.36
2022-10-21T05:35:22.940Z,88.13
2022-10-21T05:37:49.847Z,88.21
2022-10-21T05:40:18.522Z,88.71
2022-10-21T05:42:45.973Z,88.75
2022-10-21T05:45:13.121Z,88.81
2022-10-21T05:47:43.624Z,88.88
2022-10-21T05:50:12.338Z,88.09
2022-10-21T05:52:40.243Z,88.41
2022-10-21T05:55:08.395Z,88.43
2022-10-21T05:57:36.778Z,88.14
2022-10-21T06:00:07.838Z,87.94
2022-10-21T06:02:36.290Z,88.14
2022-10-21T06:05:03.881Z,87.62
2022-10-21T06:07:30.898Z,87.58
2022-10-21T06:09:58.247Z,86.99
2022-10-21T06:12:25.424Z,87.19
2022-10-21T06:14:52.550Z,87.35
2022-10-21T06:17:19.491Z,87.61
2022-10-21T06:19:50.039Z,87.64
2022-10-21T06:22:17.937Z,87.86
2022-10-21T06:24:46.935Z,87.70
2022-10-21T06:27:14.024Z,87.51
2022-10-21T06:29:41.134Z,86.85
2022-10-21T06:32:08.040Z,87.37
2022-10-21T06:34:35.151Z,87.10
2022-10-21T06:37:02.072Z,87.55
2022-10-21T06:39:29.178Z,87.28
2022-10-21T06:41:56.115Z,87.53
2022-10-21T06:44:43.661Z,87.82
2022-10-21T06:47:10.614Z,87.24
2022-10-21T06:49:37.744Z,86.59
2022-10-21T06:52:04.959Z,86.80
2022-10-21T06:54:32.448Z,86.99
2022-10-21T06:56:59.387Z,85.94
2022-10-21T06:59:26.538Z,86.08
2022-10-21T07:02:00.256Z,85.69
2022-10-21T07:04:29.198Z,85.01
2022-10-21T07:06:56.244Z,84.89
2022-10-21T07:09:23.558Z,85.00
2022-10-21T07:11:51.120Z,85.04
2022-10-21T07:14:18.200Z,84.49
2022-10-21T07:16:45.085Z,84.38
2022-10-21T07:19:12.590Z,84.03
2022-10-21T07:21:39.669Z,83.55
2022-10-21T07:24:06.726Z,82.66
2022-10-21T07:26:35.205Z,81.83
2022-10-21T07:29:02.917Z,81.14
2022-10-21T07:31:34.358Z,80.52
2022-10-21T07:36:40.592Z,77.44
2022-10-21T07:39:13.274Z,77.25
2022-10-21T07:41:47.140Z,77.75
2022-10-21T07:44:15.358Z,76.19
2022-10-21T07:46:44.135Z,76.05
2022-10-21T07:49:13.401Z,75.05
2022-10-21T07:51:41.216Z,75.03
2022-10-21T07:54:09.359Z,75.29
2022-10-21T07:56:42.501Z,75.21
2022-10-21T07:59:13.067Z,74.84
2022-10-21T08:01:44.395Z,74.11
2022-10-21T08:04:12.421Z,74.61
2022-10-21T08:06:39.711Z,73.97
2022-10-21T08:09:07.013Z,73.87
2022-10-21T08:11:34.814Z,74.17
2022-10-21T08:14:04.661Z,73.09
2022-10-21T08:16:31.843Z,73.54
2022-10-21T08:19:04.243Z,73.45
2022-10-21T08:21:31.330Z,73.50
2022-10-21T08:24:01.181Z,73.78
2022-10-21T08:26:28.865Z,73.88
2022-10-21T08:28:55.961Z,73.45
2022-10-21T08:31:23.316Z,72.02
2022-10-21T08:33:51.046Z,72.44
2022-10-21T08:36:24.950Z,72.20
2022-10-21T08:38:53.216Z,72.71
2022-10-21T08:41:23.468Z,72.62
2022-10-21T08:43:53.054Z,73.75
2022-10-21T08:46:24.459Z,73.30
2022-10-21T08:48:58.860Z,73.36
2022-10-21T08:51:35.678Z,73.11
2022-10-21T08:54:15.246Z,73.25
2022-10-21T08:56:42.676Z,72.97
2022-10-21T08:59:20.883Z,72.59
2022-10-21T09:02:08.422Z,71.80
2022-10-21T09:04:48.482Z,71.05
2022-10-21T09:07:29.586Z,70.90
2022-10-21T09:10:01.601Z,70.20
2022-10-21T09:12:47.405Z,69.91
2022-10-21T09:15:42.054Z,69.95
2022-10-21T09:18:44.181Z,69.47
2022-10-21T09:21:14.152Z,69.64
2022-10-21T09:23:46.890Z,69.45
2022-10-21T09:26:38.799Z,68.74
2022-10-21T09:29:14.836Z,68.99
2022-10-21T09:31:43.964Z,68.85
2022-10-21T09:34:46.981Z,69.28
2022-10-21T09:37:31.628Z,68.18
2022-10-21T09:40:21.219Z,68.91
2022-10-21T09:42:56.049Z,69.25
2022-10-21T09:45:26.632Z,69.16
2022-10-21T09:48:01.143Z,69.76
2022-10-21T09:50:29.417Z,70.14
2022-10-21T09:53:09.354Z,70.44
2022-10-21T09:55:39.370Z,70.21
2022-10-21T09:58:06.770Z,70.05
2022-10-21T10:00:49.958Z,68.82
2022-10-21T10:03:37.998Z,69.46
2022-10-21T10:06:05.929Z,69.11
2022-10-21T10:08:35.108Z,69.14
2022-10-21T10:11:22.365Z,68.35
2022-10-21T10:13:52.001Z,68.66
2022-10-21T10:16:23.634Z,68.54
2022-10-21T10:18:53.561Z,68.55
2022-10-21T10:21:22.332Z,68.84
2022-10-21T10:23:52.602Z,68.96
2022-10-21T10:26:33.019Z,69.42
2022-10-21T10:29:09.381Z,69.08
2022-10-21T10:31:37.967Z,69.00
2022-10-21T10:34:08.596Z,68.53
2022-10-21T10:36:39.547Z,68.97
2022-10-21T10:39:16.426Z,69.20
2022-10-21T10:41:48.332Z,68.75
2022-10-21T10:44:40.399Z,69.63
2022-10-21T10:47:09.199Z,69.10
2022-10-21T10:49:42.054Z,69.38
2022-10-21T10:52:11.929Z,69.29
2022-10-21T10:54:40.811Z,69.45
2022-10-21T10:57:34.290Z,69.86
2022-10-21T11:00:21.257Z,69.84
2022-10-21T11:02:52.546Z,69.91
2022-10-21T11:05:34.022Z,69.65
2022-10-21T11:08:24.237Z,69.50
2022-10-21T11:11:00.088Z,69.82
2022-10-21T11:13:28.359Z,69.69
2022-10-21T11:16:05.499Z,69.83
2022-10-21T11:18:49.499Z,69.25
2022-10-21T11:21:52.528Z,69.83
2022-10-21T11:24:45.505Z,69.84
2022-10-21T11:27:36.083Z,69.84
2022-10-21T11:30:11.348Z,69.31
2022-10-21T11:32:49.763Z,68.17
2022-10-21T11:35:16.581Z,67.59
2022-10-21T11:38:01.637Z,67.33
2022-10-21T11:40:54.320Z,67.42
2022-10-21T11:43:42.983Z,67.45
2022-10-21T11:46:26.873Z,67.25
2022-10-21T11:48:53.884Z,67.73
2022-10-21T11:51:48.320Z,67.26
2022-10-21T11:54:33.979Z,66.58
2022-10-21T11:57:14.419Z,67.02
2022-10-21T12:00:06.609Z,66.91
2022-10-21T12:03:01.969Z,66.71
2022-10-21T12:05:33.073Z,66.30
2022-10-21T12:08:06.458Z,66.58
2022-10-21T12:10:48.489Z,67.13
2022-10-21T12:13:21.460Z,67.22
2022-10-21T12:15:59.668Z,68.01
2022-10-21T12:18:29.057Z,67.90
2022-10-21T12:20:58.550Z,67.74
2022-10-21T12:23:29.123Z,67.11
2022-10-21T12:26:01.956Z,67.79
2022-10-21T12:28:50.833Z,67.70
2022-10-21T12:31:41.170Z,67.14
2022-10-21T12:34:11.500Z,67.57
2022-10-21T12:36:45.762Z,67.53
2022-10-21T12:39:48.285Z,67.19
2022-10-21T12:42:24.218Z,67.84
2022-10-21T12:44:52.982Z,68.07
2022-10-21T12:47:30.100Z,67.92
2022-10-21T12:50:29.841Z,68.29
2022-10-21T12:53:11.732Z,67.42
2022-10-21T12:55:41.259Z,67.91
2022-10-21T12:58:34.956Z,67.86
2022-10-21T13:01:02.863Z,67.90
2022-10-21T13:03:45.720Z,68.15
2022-10-21T13:06:13.396Z,68.60
2022-10-21T13:08:49.800Z,68.99
2022-10-21T13:11:23.165Z,68.96
2022-10-21T13:14:18.641Z,69.01
2022-10-21T13:16:45.578Z,68.78
2022-10-21T13:19:15.406Z,68.98
2022-10-21T13:21:49.972Z,68.95
2022-10-21T13:24:30.261Z,68.91
2022-10-21T13:27:03.255Z,68.53
2022-10-21T13:29:49.368Z,68.63
2022-10-21T13:32:19.558Z,69.66
2022-10-21T13:34:59.246Z,69.82
2022-10-21T13:37:31.256Z,69.74
2022-10-21T13:40:02.729Z,69.64
2022-10-21T13:42:35.410Z,70.53
2022-10-21T13:45:21.400Z,70.44
2022-10-21T13:48:00.096Z,70.99
2022-10-21T13:50:28.490Z,70.42
2022-10-21T13:52:55.759Z,70.25
2022-10-21T13:55:25.905Z,70.21
2022-10-21T13:57:56.031Z,70.33
2022-10-21T14:00:30.847Z,70.36
2022-10-21T14:03:04.688Z,70.52
2022-10-21T14:05:48.810Z,70.27
2022-10-21T14:08:25.351Z,70.48
2022-10-21T14:10:53.610Z,70.45
2022-10-21T14:13:25.625Z,70.30
2022-10-21T14:15:53.042Z,70.67
2022-10-21T14:18:37.098Z,70.76
2022-10-21T14:21:07.823Z,71.27
2022-10-21T14:23:35.011Z,71.33
2022-10-21T14:26:08.746Z,71.56
2022-10-21T14:28:39.046Z,71.88
2022-10-21T14:31:09.184Z,71.69
2022-10-21T14:33:39.400Z,71.61
2022-10-21T14:36:20.498Z,71.51
2022-10-21T14:39:03.254Z,71.65
2022-10-21T14:41:34.752Z,70.76
2022-10-21T14:44:08.021Z,71.21
2022-10-21T14:46:43.474Z,71.37
2022-10-21T14:49:25.990Z,70.81
2022-10-21T14:52:08.305Z,70.76
2022-10-21T14:54:47.543Z,70.70
2022-10-21T14:57:44.603Z,70.68
2022-10-21T15:00:29.046Z,70.45
2022-10-21T15:02:59.172Z,70.43
2022-10-21T15:05:45.166Z,70.46
2022-10-21T15:08:24.245Z,70.78
2022-10-21T15:10:57.175Z,70.45
2022-10-21T15:13:26.820Z,70.62
2022-10-21T15:15:55.920Z,70.65
2022-10-21T15:18:44.092Z,70.58
2022-10-21T15:21:25.497Z,70.57
2022-10-21T15:23:54.967Z,70.83
2022-10-21T15:26:30.029Z,70.87
2022-10-21T15:28:57.458Z,70.89
2022-10-21T15:31:27.668Z,70.81
2022-10-21T15:33:58.350Z,71.05
2022-10-21T15:36:25.503Z,71.11
2022-10-21T15:38:54.704Z,71.41
2022-10-21T15:41:24.824Z,71.56
2022-10-21T15:44:05.671Z,71.60
2022-10-21T15:46:45.780Z,71.74
2022-10-21T15:49:22.018Z,72.07
2022-10-21T15:51:49.968Z,72.29
2022-10-21T15:54:18.753Z,72.59
2022-10-21T15:56:48.724Z,73.09
2022-10-21T15:59:25.246Z,73.02
2022-10-21T16:01:53.154Z,73.31
2022-10-21T16:04:20.729Z,73.63
2022-10-21T16:06:48.926Z,73.67
2022-10-21T16:09:22.696Z,73.75
2022-10-21T16:12:00.118Z,74.05
2022-10-21T16:14:30.517Z,74.33
2022-10-21T16:16:59.322Z,74.51
2022-10-21T16:19:27.242Z,74.56
2022-10-21T16:21:54.173Z,74.65
2022-10-21T16:24:21.553Z,74.83
2022-10-21T16:26:50.313Z,74.80
2022-10-21T16:29:21.194Z,74.95
2022-10-21T16:31:48.349Z,74.99
2022-10-21T16:34:15.403Z,75.26
2022-10-21T16:36:42.922Z,75.27
2022-10-21T16:39:28.034Z,75.30
2022-10-21T16:41:55.003Z,75.73
2022-10-21T16:44:22.170Z,75.62
2022-10-21T16:46:55.584Z,75.81
2022-10-21T16:49:25.738Z,75.77
2022-10-21T16:51:53.741Z,75.84
2022-10-21T16:54:23.343Z,76.06
2022-10-21T16:56:53.350Z,76.41
2022-10-21T16:59:22.681Z,76.39
2022-10-21T17:01:49.584Z,76.43
2022-10-21T17:04:17.470Z,76.74
2022-10-21T17:06:44.407Z,76.37
2022-10-21T17:09:11.837Z,76.45
2022-10-21T17:11:40.733Z,76.83
2022-10-21T17:14:11.750Z,76.79
2022-10-21T17:16:40.314Z,76.85
2022-10-21T17:19:08.093Z,76.74
2022-10-21T17:21:34.993Z,76.70
2022-10-21T17:24:03.178Z,76.59
2022-10-21T17:26:31.085Z,76.79
2022-10-21T17:28:58.265Z,76.80
2022-10-21T17:31:27.041Z,76.64
2022-10-21T17:33:56.893Z,76.84
2022-10-21T17:36:23.704Z,76.98
2022-10-21T17:38:50.986Z,77.38
2022-10-21T17:41:20.343Z,77.46
2022-10-21T17:43:48.546Z,77.48
2022-10-21T17:46:20.988Z,77.77
2022-10-21T17:48:53.541Z,77.81
2022-10-21T17:51:25.973Z,77.81
2022-10-21T17:53:55.113Z,78.10
2022-10-21T17:56:23.121Z,78.38
2022-10-21T17:58:53.043Z,78.34
2022-10-21T18:01:22.128Z,78.34
2022-10-21T18:03:49.505Z,78.54
2022-10-21T18:06:16.781Z,78.93
2022-10-21T18:08:44.564Z,79.23
2022-10-21T18:11:14.416Z,79.01
2022-10-21T18:13:42.488Z,79.37
2022-10-21T18:16:18.400Z,79.44
2022-10-21T18:18:46.175Z,79.81
2022-10-21T18:21:16.042Z,80.23
2022-10-21T18:23:45.717Z,80.35
2022-10-21T18:26:23.335Z,80.71
2022-10-21T18:28:59.028Z,80.77
2022-10-21T18:31:29.894Z,81.47
2022-10-21T18:33:58.713Z,81.53
2022-10-21T18:36:26.380Z,81.62
2022-10-21T18:38:54.139Z,81.62
2022-10-21T18:41:21.884Z,81.86
2022-10-21T18:43:50.422Z,82.03
2022-10-21T18:46:17.765Z,82.51
2022-10-21T18:48:45.310Z,82.78
2022-10-21T18:51:15.502Z,82.90
2022-10-21T18:53:46.121Z,82.80
2022-10-21T18:56:16.991Z,82.97
2022-10-21T18:58:44.751Z,82.66
2022-10-21T19:01:12.517Z,82.88
2022-10-21T19:03:40.288Z,82.66
2022-10-21T19:06:48.728Z,82.94
2022-10-21T19:09:21.943Z,82.91
2022-10-21T19:11:49.030Z,83.02
2022-10-21T19:14:16.573Z,83.33
2022-10-21T19:16:45.162Z,83.06
2022-10-21T19:19:13.333Z,83.49
2022-10-21T19:21:40.664Z,83.63
2022-10-21T19:24:08.786Z,83.59
2022-10-21T19:26:37.718Z,83.67
2022-10-21T19:29:08.709Z,83.31
2022-10-21T19:31:37.767Z,83.60
2022-10-21T19:34:07.283Z,83.79
2022-10-21T19:36:34.889Z,83.56
2022-10-21T19:39:02.363Z,83.72
2022-10-21T19:41:29.154Z,83.74
2022-10-21T19:43:58.570Z,83.92
2022-10-21T19:46:28.553Z,83.68
2022-10-21T19:48:55.931Z,83.90
2022-10-21T19:51:25.165Z,83.83
2022-10-21T19:53:53.269Z,83.69
2022-10-21T19:56:25.529Z,83.81
2022-10-21T19:58:54.808Z,84.07
2022-10-21T20:01:23.792Z,84.34
2022-10-21T20:03:52.285Z,84.27
2022-10-21T20:06:28.256Z,84.23
2022-10-21T20:08:57.946Z,84.25
2022-10-21T20:11:26.547Z,83.98
2022-10-21T20:13:54.029Z,84.18
2022-10-21T20:16:20.792Z,84.17
2022-10-21T20:18:48.156Z,84.14
2022-10-21T20:21:15.396Z,83.86
2022-10-21T20:23:42.669Z,83.96
2022-10-21T20:26:10.126Z,84.05
2022-10-21T20:28:38.244Z,83.65
2022-10-21T20:31:07.949Z,83.68
2022-10-21T20:33:40.106Z,83.55
2022-10-21T20:36:29.673Z,83.61
2022-10-21T20:38:57.730Z,83.79
2022-10-21T20:41:28.351Z,83.93
2022-10-21T20:43:55.507Z,83.91
2022-10-21T20:46:24.314Z,84.14
2022-10-21T20:48:53.346Z,84.32
2022-10-21T20:51:29.441Z,84.08
2022-10-21T20:54:08.120Z,84.48
2022-10-21T20:56:37.314Z,85.02
2022-10-21T20:59:06.027Z,85.67
2022-10-21T21:01:36.386Z,86.03
2022-10-21T21:04:15.136Z,86.23
2022-10-21T21:06:44.884Z,86.60
2022-10-21T21:12:03.533Z,87.12
2022-10-21T21:14:31.840Z,87.32
2022-10-21T21:16:58.964Z,88.00
2022-10-21T21:19:26.179Z,88.09
2022-10-21T21:21:53.542Z,88.08
2022-10-21T21:24:20.748Z,88.47
2022-10-21T21:26:47.718Z,88.56
2022-10-21T21:29:15.054Z,88.11
2022-10-21T21:31:42.874Z,88.12
2022-10-21T21:34:11.000Z,87.81
2022-10-21T21:36:38.132Z,87.82
2022-10-21T21:39:06.614Z,87.54
2022-10-21T21:41:34.401Z,87.43
2022-10-21T21:44:01.437Z,87.46
2022-10-21T21:46:28.403Z,87.34
2022-10-21T21:49:04.998Z,87.33
2022-10-21T21:51:35.251Z,87.25
2022-10-21T21:54:03.893Z,87.08
2022-10-21T21:56:31.168Z,87.07
2022-10-21T21:58:58.616Z,87.16
2022-10-21T22:01:28.805Z,87.34
2022-10-21T22:03:56.433Z,86.70
2022-10-21T22:08:58.892Z,87.32
2022-10-21T22:11:29.065Z,87.13
2022-10-21T22:13:56.769Z,87.41
2022-10-21T22:16:27.261Z,87.51
2022-10-21T22:18:54.871Z,87.51
2022-10-21T22:21:21.984Z,87.62
2022-10-21T22:23:51.086Z,87.82
2022-10-21T22:26:20.088Z,88.07
2022-10-21T22:28:47.210Z,88.26
2022-10-21T22:31:16.514Z,88.42
2022-10-21T22:36:16.637Z,88.72
2022-10-21T22:38:44.991Z,88.98
2022-10-21T22:41:13.045Z,88.91
2022-10-21T22:43:40.484Z,89.35
2022-10-21T22:48:54.608Z,89.46
2022-10-21T22:51:21.655Z,89.65
2022-10-21T22:53:53.553Z,90.06
2022-10-21T22:56:24.626Z,90.24
2022-10-21T22:58:52.020Z,90.52
2022-10-21T23:01:19.786Z,90.53
2022-10-21T23:03:47.031Z,90.91
2022-10-21T23:06:14.361Z,91.41
2022-10-21T23:08:41.490Z,91.63
2022-10-21T23:11:08.469Z,91.84
2022-10-21T23:13:35.487Z,92.21
2022-10-21T23:16:02.383Z,92.15
2022-10-21T23:18:29.473Z,92.64
2022-10-21T23:20:56.256Z,93.01
2022-10-21T23:23:23.354Z,93.13
2022-10-21T23:25:50.639Z,93.11
2022-10-21T23:30:45.431Z,93.28
2022-10-21T23:33:12.638Z,93.73
2022-10-21T23:35:39.745Z,93.92
2022-10-21T23:38:07.077Z,94.14
2022-10-21T23:40:34.282Z,94.25
2022-10-21T23:43:01.345Z,94.52
2022-10-21T23:45:28.347Z,94.75
2022-10-21T23:47:55.361Z,94.76
2022-10-21T23:50:22.484Z,94.88
2022-10-21T23:52:49.707Z,95.20
2022-10-21T23:55:16.805Z,95.37
2022-10-21T23:57:44.260Z,95.48
